createdAt,value
2018-12-05T00:00:51.343Z,2.07
2018-12-05T00:03:22.023Z,1.83
2018-12-05T00:05:51.604Z,2.30
2018-12-05T00:08:21.940Z,2.90
2018-12-05T00:10:51.479Z,1.90
2018-12-05T00:13:24.049Z,3.00
2018-12-05T00:15:53.472Z,2.37
2018-12-05T00:18:23.033Z,2.37
2018-12-05T00:20:52.729Z,2.70
2018-12-05T00:23:25.106Z,2.47
2018-12-05T00:25:54.653Z,2.60
2018-12-05T00:30:55.256Z,2.73
2018-12-05T00:33:27.532Z,2.60
2018-12-05T00:36:00.075Z,2.40
2018-12-05T00:38:29.835Z,2.30
2018-12-05T00:40:59.409Z,2.13
2018-12-05T00:43:29.043Z,2.30
2018-12-05T00:46:01.271Z,2.00
2018-12-05T00:48:30.974Z,2.10
2018-12-05T00:51:00.349Z,2.50
2018-12-05T00:53:30.022Z,4.00
2018-12-05T00:55:59.481Z,4.80
2018-12-05T00:58:29.047Z,2.97
2018-12-05T01:00:58.424Z,3.97
2018-12-05T01:03:27.894Z,3.90
2018-12-05T01:05:57.490Z,4.40
2018-12-05T01:08:27.070Z,5.40
2018-12-05T01:10:56.650Z,5.43
2018-12-05T01:13:26.450Z,6.20
2018-12-05T01:15:56.108Z,3.90
2018-12-05T01:18:26.665Z,6.00
2018-12-05T01:20:59.458Z,5.67
2018-12-05T01:23:28.997Z,6.47
2018-12-05T01:25:58.760Z,6.67
2018-12-05T01:28:28.279Z,6.27
2018-12-05T01:30:57.807Z,4.97
2018-12-05T01:33:28.195Z,4.70
2018-12-05T01:36:00.517Z,4.97
2018-12-05T01:38:30.374Z,5.40
2018-12-05T01:40:59.946Z,4.77
2018-12-05T01:43:31.397Z,4.43
2018-12-05T01:46:00.916Z,4.40
2018-12-05T01:48:30.584Z,4.27
2018-12-05T01:51:04.058Z,4.03
2018-12-05T01:53:36.496Z,4.80
2018-12-05T01:56:06.182Z,4.20
2018-12-05T01:58:38.625Z,3.50
2018-12-05T02:01:08.078Z,4.07
2018-12-05T02:03:35.867Z,4.50
2018-12-05T02:06:05.724Z,4.00
2018-12-05T02:08:35.328Z,3.47
2018-12-05T02:11:05.802Z,13.67
2018-12-05T02:13:35.187Z,10.53
2018-12-05T03:27:42.160Z,8.30
2018-12-05T03:30:12.424Z,8.53
2018-12-05T03:32:41.742Z,7.87
2018-12-05T03:35:11.210Z,9.00
2018-12-05T03:37:40.567Z,7.87
2018-12-05T03:40:10.340Z,8.57
2018-12-05T03:42:40.303Z,8.27
2018-12-05T03:45:10.543Z,8.70
2018-12-05T03:47:39.895Z,8.00
2018-12-05T03:50:09.395Z,7.23
2018-12-05T03:52:41.922Z,7.20
2018-12-05T03:55:11.467Z,5.80
2018-12-05T03:57:41.347Z,6.73
2018-12-05T04:00:10.931Z,6.33
2018-12-05T04:02:45.717Z,5.70
2018-12-05T04:05:18.100Z,5.93
2018-12-05T04:07:47.699Z,6.17
2018-12-05T04:10:23.235Z,6.50
2018-12-05T04:12:55.971Z,6.87
2018-12-05T04:15:24.325Z,7.00
2018-12-05T04:17:53.779Z,5.37
2018-12-05T04:20:33.159Z,4.83
2018-12-05T04:23:05.738Z,4.27
2018-12-05T04:25:35.473Z,3.90
2018-12-05T04:28:05.222Z,4.53
2018-12-05T04:30:45.564Z,4.73
2018-12-05T04:33:15.114Z,3.93
2018-12-05T04:35:44.710Z,3.67
2018-12-05T04:38:14.311Z,3.67
2018-12-05T04:40:42.002Z,2.93
2018-12-05T04:43:11.470Z,3.10
2018-12-05T04:45:40.887Z,2.77
2018-12-05T04:48:10.319Z,2.40
2018-12-05T04:50:40.198Z,5.00
2018-12-05T04:53:12.558Z,6.10
2018-12-05T04:55:42.174Z,5.40
2018-12-05T04:58:14.594Z,5.07
2018-12-05T05:00:45.646Z,4.17
2018-12-05T05:03:15.732Z,3.37
2018-12-05T05:05:45.291Z,2.30
2018-12-05T05:08:14.918Z,2.07
2018-12-05T05:10:44.723Z,2.70
2018-12-05T05:13:18.005Z,3.67
2018-12-05T05:15:48.074Z,2.73
2018-12-05T05:18:17.676Z,2.20
2018-12-05T05:20:48.148Z,2.20
2018-12-05T05:23:20.495Z,2.20
2018-12-05T05:25:50.283Z,2.20
2018-12-05T05:28:22.744Z,2.30
2018-12-05T05:30:52.269Z,1.70
2018-12-05T05:33:22.407Z,2.27
2018-12-05T05:35:52.434Z,1.43
2018-12-05T05:38:24.869Z,1.63
2018-12-05T05:40:54.448Z,1.60
2018-12-05T05:43:24.111Z,3.80
2018-12-05T05:45:54.491Z,1.97
2018-12-05T05:48:23.995Z,2.40
2018-12-05T05:50:56.333Z,1.63
2018-12-05T05:53:24.078Z,2.10
2018-12-05T05:55:51.612Z,2.00
2018-12-05T05:58:21.058Z,1.93
2018-12-05T06:00:50.411Z,1.67
2018-12-05T06:03:20.989Z,1.80
2018-12-05T06:05:50.580Z,1.53
2018-12-05T06:08:20.892Z,2.27
2018-12-05T06:10:50.562Z,2.47
2018-12-05T06:13:20.238Z,2.70
2018-12-05T06:15:49.550Z,2.70
2018-12-05T06:18:17.162Z,2.83
2018-12-05T06:20:46.778Z,2.97
2018-12-05T06:23:17.196Z,3.90
2018-12-05T06:25:47.499Z,11.93
2018-12-05T06:28:18.017Z,9.83
2018-12-05T06:40:42.124Z,4.30
2018-12-05T06:43:11.744Z,4.57
2018-12-05T06:45:41.159Z,4.90
2018-12-05T06:48:10.791Z,3.87
2018-12-05T06:50:40.170Z,5.33
2018-12-05T06:53:09.714Z,4.90
2018-12-05T06:55:42.087Z,4.33
2018-12-05T06:58:11.907Z,3.93
2018-12-05T07:00:44.337Z,4.50
2018-12-05T07:03:14.761Z,5.83
2018-12-05T07:05:45.154Z,6.57
2018-12-05T07:08:14.742Z,6.47
2018-12-05T07:10:44.194Z,5.93
2018-12-05T07:13:17.575Z,5.47
2018-12-05T07:15:45.147Z,5.03
2018-12-05T07:18:14.719Z,5.17
2018-12-05T07:20:44.143Z,5.77
2018-12-05T07:23:13.642Z,4.23
2018-12-05T07:25:43.084Z,5.40
2018-12-05T07:28:12.750Z,5.17
2018-12-05T07:30:42.833Z,4.87
2018-12-05T07:33:12.394Z,4.93
2018-12-05T07:35:41.901Z,4.73
2018-12-05T07:38:19.394Z,4.80
2018-12-05T07:40:49.677Z,4.80
2018-12-05T07:43:19.430Z,5.03
2018-12-05T07:45:49.791Z,5.60
2018-12-05T07:48:19.508Z,4.80
2018-12-05T07:50:49.033Z,6.13
2018-12-05T07:53:22.530Z,5.00
2018-12-05T07:55:50.393Z,4.17
2018-12-05T07:58:19.862Z,4.40
2018-12-05T08:00:53.074Z,4.17
2018-12-05T08:03:23.032Z,3.60
2018-12-05T08:05:53.258Z,4.70
2018-12-05T08:08:23.787Z,5.13
2018-12-05T08:10:54.064Z,4.40
2018-12-05T08:13:23.604Z,4.10
2018-12-05T08:15:57.164Z,4.13
2018-12-05T08:18:27.183Z,4.10
2018-12-05T08:20:59.653Z,3.60
2018-12-05T08:23:27.399Z,3.40
2018-12-05T08:25:56.863Z,2.50
2018-12-05T08:28:29.389Z,3.57
2018-12-05T08:30:56.879Z,5.00
2018-12-05T08:33:26.279Z,4.20
2018-12-05T08:35:55.692Z,5.77
2018-12-05T08:38:23.331Z,6.30
2018-12-05T08:40:52.869Z,5.00
2018-12-05T08:43:22.567Z,5.57
2018-12-05T08:45:52.212Z,6.03
2018-12-05T08:48:21.839Z,5.60
2018-12-05T08:50:51.680Z,7.00
2018-12-05T08:53:19.320Z,5.67
2018-12-05T08:55:48.988Z,6.67
2018-12-05T08:58:18.783Z,5.57
2018-12-05T09:00:49.727Z,5.70
2018-12-05T09:03:19.694Z,6.40
2018-12-05T09:05:49.342Z,5.20
2018-12-05T09:08:21.767Z,5.77
2018-12-05T09:10:51.285Z,7.47
2018-12-05T09:13:24.010Z,6.50
2018-12-05T09:15:53.840Z,6.97
2018-12-05T09:18:26.386Z,6.40
2018-12-05T09:20:56.307Z,8.40
2018-12-05T09:23:28.903Z,8.27
2018-12-05T09:25:58.621Z,9.27
2018-12-05T09:28:28.964Z,8.07
2018-12-05T09:30:58.583Z,8.40
2018-12-05T09:33:28.427Z,8.47
2018-12-05T09:36:05.045Z,8.60
2018-12-05T09:38:37.671Z,8.70
2018-12-05T09:41:07.762Z,8.13
2018-12-05T09:43:40.805Z,8.37
2018-12-05T09:46:10.847Z,8.57
2018-12-05T09:48:43.575Z,10.97
2018-12-05T09:51:13.136Z,10.27
2018-12-05T09:53:42.602Z,9.40
2018-12-05T09:56:17.082Z,9.73
2018-12-05T09:58:54.488Z,9.20
2018-12-05T10:01:27.330Z,7.77
2018-12-05T10:03:56.802Z,9.40
2018-12-05T10:06:28.171Z,9.17
2018-12-05T10:08:58.358Z,8.73
2018-12-05T10:11:28.884Z,8.80
2018-12-05T10:13:58.694Z,9.33
2018-12-05T10:16:28.535Z,8.60
2018-12-05T10:19:03.039Z,8.67
2018-12-05T10:21:32.947Z,9.07
2018-12-05T10:24:01.277Z,8.97
2018-12-05T10:26:30.648Z,9.73
2018-12-05T10:29:00.178Z,9.10
2018-12-05T10:31:32.802Z,9.70
2018-12-05T10:34:05.287Z,9.00
2018-12-05T10:36:35.060Z,8.50
2018-12-05T10:39:08.392Z,9.43
2018-12-05T10:41:46.148Z,8.20
2018-12-05T10:44:19.035Z,9.43
2018-12-05T10:46:48.694Z,11.50
2018-12-05T10:49:18.271Z,8.83
2018-12-05T10:51:47.971Z,11.10
2018-12-05T10:54:18.166Z,9.63
2018-12-05T10:56:47.779Z,13.33
2018-12-05T10:59:17.383Z,11.63
2018-12-05T11:01:55.995Z,9.00
2018-12-05T11:04:31.744Z,9.10
2018-12-05T11:07:07.642Z,9.23
2018-12-05T11:09:44.091Z,9.63
2018-12-05T11:12:20.111Z,12.53
2018-12-05T11:14:55.673Z,11.47
2018-12-05T11:17:31.178Z,9.63
2018-12-05T11:20:10.755Z,9.90
2018-12-05T11:22:47.257Z,10.00
2018-12-05T11:25:21.219Z,10.10
2018-12-05T11:27:51.286Z,8.37
2018-12-05T11:30:20.690Z,10.00
2018-12-05T11:32:50.488Z,9.80
2018-12-05T11:35:22.982Z,9.27
2018-12-05T11:37:55.413Z,10.60
2018-12-05T11:40:24.963Z,12.43
2018-12-05T11:42:57.249Z,13.53
2018-12-05T11:45:30.874Z,11.40
2018-12-05T11:48:00.448Z,10.00
2018-12-05T11:52:58.534Z,8.97
2018-12-05T11:55:29.098Z,9.43
2018-12-05T11:57:58.739Z,10.60
2018-12-05T12:00:28.815Z,10.33
2018-12-05T12:02:58.317Z,7.73
2018-12-05T12:05:29.607Z,10.03
2018-12-05T12:07:59.699Z,9.57
2018-12-05T12:10:35.279Z,7.80
2018-12-05T12:13:05.406Z,8.80
2018-12-05T12:15:35.229Z,8.37
2018-12-05T12:18:05.498Z,9.60
2018-12-05T12:20:34.956Z,8.10
2018-12-05T12:23:04.362Z,8.37
2018-12-05T12:25:34.115Z,9.07
2018-12-05T12:28:03.846Z,8.57
2018-12-05T12:30:33.791Z,7.67
2018-12-05T12:33:07.133Z,7.30
2018-12-05T12:35:34.840Z,7.17
2018-12-05T12:38:04.495Z,8.00
2018-12-05T12:40:35.355Z,8.50
2018-12-05T12:43:08.639Z,7.37
2018-12-05T12:45:38.629Z,7.73
2018-12-05T12:48:11.087Z,7.33
2018-12-05T12:50:46.779Z,7.07
2018-12-05T12:53:36.433Z,6.77
2018-12-05T12:56:21.653Z,8.07
2018-12-05T12:58:55.019Z,7.60
2018-12-05T13:01:24.673Z,8.20
2018-12-05T13:03:54.221Z,7.67
2018-12-05T13:06:22.523Z,6.77
2018-12-05T13:08:52.042Z,7.63
2018-12-05T13:11:21.754Z,7.53
2018-12-05T13:13:51.469Z,7.97
2018-12-05T13:16:22.318Z,8.07
2018-12-05T13:18:54.811Z,8.20
2018-12-05T13:21:26.093Z,11.27
2018-12-05T13:23:58.936Z,9.50
2018-12-05T13:26:34.219Z,7.40
2018-12-05T13:29:06.624Z,7.47
2018-12-05T13:31:36.208Z,8.63
2018-12-05T13:34:05.770Z,6.73
2018-12-05T13:36:34.363Z,7.33
2018-12-05T13:39:06.918Z,7.43
2018-12-05T13:41:36.264Z,7.10
2018-12-05T13:44:07.867Z,6.63
2018-12-05T13:46:38.765Z,8.20
2018-12-05T13:49:12.242Z,8.60
2018-12-05T13:51:42.126Z,7.50
2018-12-05T13:54:12.519Z,7.60
2018-12-05T13:56:42.196Z,7.90
2018-12-05T13:59:15.551Z,6.93
2018-12-05T14:01:45.056Z,8.00
2018-12-05T14:04:14.576Z,8.00
2018-12-05T14:06:44.310Z,7.80
2018-12-05T14:09:14.282Z,6.70
2018-12-05T14:11:43.751Z,7.03
2018-12-05T14:14:13.273Z,7.10
2018-12-05T14:16:43.026Z,6.63
2018-12-05T14:19:15.470Z,6.63
2018-12-05T14:21:48.004Z,6.77
2018-12-05T14:24:20.320Z,6.30
2018-12-05T14:26:52.783Z,7.23
2018-12-05T14:29:22.405Z,6.73
2018-12-05T14:31:51.900Z,6.60
2018-12-05T14:34:26.005Z,8.17
2018-12-05T14:37:07.075Z,8.33
2018-12-05T14:39:41.476Z,6.30
2018-12-05T14:42:13.810Z,7.43
2018-12-05T14:44:43.877Z,6.87
2018-12-05T14:47:12.292Z,6.93
2018-12-05T14:49:42.664Z,6.23
2018-12-05T14:52:12.042Z,7.40
2018-12-05T14:54:41.614Z,7.50
2018-12-05T14:57:11.915Z,7.00
2018-12-05T14:59:41.348Z,6.00
2018-12-05T15:02:10.893Z,6.60
2018-12-05T15:04:40.199Z,6.10
2018-12-05T15:07:09.629Z,7.40
2018-12-05T15:09:56.987Z,7.10
2018-12-05T15:12:30.155Z,6.03
2018-12-05T15:14:57.943Z,7.80
2018-12-05T15:17:35.646Z,6.57
2018-12-05T15:20:07.959Z,7.77
2018-12-05T15:22:44.491Z,6.77
2018-12-05T15:25:14.814Z,7.60
2018-12-05T15:27:45.377Z,7.50
2018-12-05T15:30:17.707Z,5.30
2018-12-05T15:32:48.606Z,6.63
2018-12-05T15:35:22.374Z,8.80
2018-12-05T15:37:55.979Z,7.27
2018-12-05T15:40:25.383Z,7.93
2018-12-05T15:42:55.026Z,7.20
2018-12-05T15:45:24.670Z,4.73
2018-12-05T15:47:56.538Z,5.50
2018-12-05T15:50:26.888Z,8.73
2018-12-05T15:52:56.601Z,7.17
2018-12-05T15:55:27.438Z,7.07
2018-12-05T15:57:57.442Z,9.93
2018-12-05T16:00:29.769Z,10.30
2018-12-05T16:02:59.380Z,8.50
2018-12-05T16:05:35.992Z,8.60
2018-12-05T16:08:08.239Z,8.07
2018-12-05T16:10:41.390Z,8.97
2018-12-05T16:13:11.093Z,7.97
2018-12-05T16:15:40.608Z,8.63
2018-12-05T16:18:10.248Z,8.27
2018-12-05T16:20:43.174Z,8.33
2018-12-05T16:23:16.482Z,8.40
2018-12-05T16:25:46.342Z,7.40
2018-12-05T16:28:16.990Z,10.70
2018-12-05T16:30:49.527Z,12.40
2018-12-05T16:33:19.820Z,15.47
2018-12-05T16:35:53.185Z,15.23
2018-12-05T16:38:25.658Z,11.23
2018-12-05T16:40:55.264Z,10.50
2018-12-05T16:43:22.738Z,11.17
2018-12-05T16:45:50.217Z,10.13
2018-12-05T16:48:19.517Z,12.23
2018-12-05T16:50:50.214Z,13.33
2018-12-05T16:53:22.922Z,14.23
2018-12-05T16:55:52.491Z,14.40
2018-12-05T16:58:22.195Z,12.63
2018-12-05T17:00:49.600Z,11.70
2018-12-05T17:03:21.265Z,11.73
2018-12-05T17:05:54.000Z,9.00
2018-12-05T17:08:23.658Z,14.07
2018-12-05T17:10:53.238Z,12.57
2018-12-05T17:13:23.457Z,9.90
2018-12-05T17:15:53.336Z,10.07
2018-12-05T17:18:23.037Z,9.80
2018-12-05T17:20:53.531Z,8.93
2018-12-05T17:23:23.076Z,8.53
2018-12-05T17:25:52.530Z,13.40
2018-12-05T17:28:22.095Z,8.33
2018-12-05T17:30:51.518Z,12.73
2018-12-05T17:33:20.913Z,12.50
2018-12-05T17:35:50.488Z,13.77
2018-12-05T17:38:20.254Z,11.10
2018-12-05T17:40:49.636Z,7.20
2018-12-05T17:43:22.298Z,8.70
2018-12-05T17:45:51.838Z,7.57
2018-12-05T17:48:21.436Z,8.30
2018-12-05T17:50:51.020Z,8.97
2018-12-05T17:53:20.578Z,9.07
2018-12-05T17:55:50.153Z,13.20
2018-12-05T17:58:20.453Z,10.97
2018-12-05T18:00:51.040Z,12.23
2018-12-05T18:03:21.271Z,13.53
2018-12-05T18:05:50.562Z,11.83
2018-12-05T18:08:20.377Z,12.93
2018-12-05T18:10:48.497Z,13.23
2018-12-05T18:13:21.891Z,10.33
2018-12-05T18:15:54.323Z,13.30
2018-12-05T18:18:28.447Z,13.10
2018-12-05T18:21:01.711Z,13.47
2018-12-05T18:23:32.494Z,13.50
2018-12-05T18:26:02.599Z,11.53
2018-12-05T18:28:32.874Z,12.47
2018-12-05T18:31:02.564Z,13.17
2018-12-05T18:33:31.975Z,11.20
2018-12-05T18:36:04.303Z,12.93
2018-12-05T18:38:33.846Z,13.50
2018-12-05T18:41:03.288Z,15.73
2018-12-05T18:43:33.550Z,15.27
2018-12-05T18:46:03.006Z,16.07
2018-12-05T18:48:33.318Z,13.77
2018-12-05T18:51:03.110Z,15.70
2018-12-05T18:53:37.231Z,15.53
2018-12-05T18:56:06.944Z,16.43
2018-12-05T18:58:37.470Z,15.00
2018-12-05T19:01:08.667Z,12.53
2018-12-05T19:03:38.642Z,14.37
2018-12-05T19:06:09.329Z,16.23
2018-12-05T19:08:38.916Z,14.83
2018-12-05T19:11:10.059Z,15.10
2018-12-05T19:13:49.316Z,12.83
2018-12-05T19:16:16.851Z,14.80
2018-12-05T19:18:46.346Z,11.90
2018-12-05T19:21:15.923Z,13.20
2018-12-05T19:23:43.622Z,15.27
2018-12-05T19:26:13.169Z,13.63
2018-12-05T19:28:43.797Z,12.50
2018-12-05T19:31:19.335Z,10.67
2018-12-05T19:33:44.846Z,10.73
2018-12-05T19:36:14.226Z,14.97
2018-12-05T19:38:43.824Z,10.03
2018-12-05T19:41:17.131Z,11.00
2018-12-05T19:43:46.855Z,17.17
2018-12-05T19:46:17.029Z,13.10
2018-12-05T19:48:52.028Z,13.70
2018-12-05T19:51:23.735Z,13.63
2018-12-05T19:53:53.288Z,10.83
2018-12-05T19:56:22.786Z,10.33
2018-12-05T19:58:52.885Z,11.97
2018-12-05T20:01:21.769Z,11.67
2018-12-05T20:03:55.269Z,12.23
2018-12-05T20:06:24.799Z,10.77
2018-12-05T20:08:58.253Z,11.13
2018-12-05T20:11:28.075Z,9.40
2018-12-05T20:14:00.400Z,8.97
2018-12-05T20:16:30.319Z,10.70
2018-12-05T20:18:57.680Z,9.37
2018-12-05T20:21:30.100Z,9.77
2018-12-05T20:24:02.009Z,10.20
2018-12-05T20:26:30.908Z,10.00
2018-12-05T20:32:04.250Z,10.17
2018-12-05T20:34:34.748Z,9.10
2018-12-05T20:37:04.443Z,8.63
2018-12-05T20:39:34.692Z,10.77
2018-12-05T20:42:04.466Z,9.40
2018-12-05T20:44:35.547Z,9.33
2018-12-05T20:47:05.276Z,9.73
2018-12-05T20:49:39.286Z,9.37
2018-12-05T20:52:09.252Z,10.13
2018-12-05T20:54:39.627Z,8.87
2018-12-05T20:57:09.782Z,10.37
2018-12-05T20:59:43.093Z,10.13
2018-12-05T21:02:13.467Z,10.70
2018-12-05T21:04:42.760Z,10.27
2018-12-05T21:07:13.261Z,11.07
2018-12-05T21:09:45.606Z,11.23
2018-12-05T21:12:18.936Z,10.67
2018-12-05T21:14:48.470Z,11.20
2018-12-05T21:17:17.962Z,10.10
2018-12-05T21:19:47.367Z,10.67
2018-12-05T21:22:16.960Z,11.37
2018-12-05T21:24:46.357Z,11.27
2018-12-05T21:27:16.225Z,10.13
2018-12-05T21:29:45.650Z,10.90
2018-12-05T21:32:15.090Z,8.93
2018-12-05T21:34:46.400Z,10.50
2018-12-05T21:37:15.864Z,7.13
2018-12-05T21:39:48.159Z,9.30
2018-12-05T21:42:18.067Z,9.83
2018-12-05T21:44:48.260Z,9.77
2018-12-05T21:47:18.518Z,6.23
2018-12-05T21:49:48.018Z,10.60
2018-12-05T21:52:17.640Z,10.47
2018-12-05T21:54:47.003Z,9.70
2018-12-05T21:57:16.414Z,8.33
2018-12-05T21:59:45.821Z,9.70
2018-12-05T22:02:16.176Z,10.97
2018-12-05T22:04:48.374Z,11.07
2018-12-05T22:17:11.323Z,9.67
2018-12-05T22:19:40.923Z,9.23
2018-12-05T22:22:10.575Z,8.13
2018-12-05T22:24:39.956Z,9.50
2018-12-05T22:27:10.257Z,9.83
2018-12-05T22:29:39.670Z,9.00
2018-12-05T22:32:10.767Z,9.10
2018-12-05T22:34:43.943Z,7.80
2018-12-05T22:37:13.882Z,9.80
2018-12-05T22:39:46.498Z,7.80
2018-12-05T22:42:16.036Z,9.27
2018-12-05T22:44:45.353Z,9.63
2018-12-05T22:47:12.855Z,9.63
2018-12-05T22:49:45.323Z,8.73
2018-12-05T22:52:15.041Z,9.47
2018-12-05T22:54:44.821Z,10.20
2018-12-05T22:57:17.371Z,8.70
2018-12-05T22:59:47.413Z,9.80
2018-12-05T23:02:19.755Z,9.27
2018-12-05T23:04:50.317Z,8.60
2018-12-05T23:07:19.788Z,9.60
2018-12-05T23:09:49.195Z,8.33
2018-12-05T23:12:19.141Z,8.20
2018-12-05T23:14:48.420Z,9.13
2018-12-05T23:17:19.715Z,9.40
2018-12-05T23:22:16.355Z,9.27
2018-12-05T23:24:46.432Z,8.57
2018-12-05T23:27:19.585Z,9.33
2018-12-05T23:29:52.295Z,8.07
2018-12-05T23:32:21.807Z,8.70
2018-12-05T23:34:51.262Z,8.60
2018-12-05T23:37:20.850Z,9.30
2018-12-05T23:39:50.347Z,9.03
2018-12-05T23:42:19.756Z,8.87
2018-12-05T23:44:48.711Z,8.57
2018-12-05T23:47:19.609Z,8.60
2018-12-05T23:49:49.314Z,8.77
2018-12-05T23:52:19.830Z,8.77
2018-12-05T23:54:53.900Z,9.57
2018-12-05T23:57:25.172Z,9.00
2018-12-05T23:59:58.128Z,9.13
